Time;durP1;ratioP1;P1;durP2;ratioP2;P2;SDS_P1;SDS_P2;PMS_P1;PMS_P2;Temp;Humidity;BMP_temperature;BMP_pressure;BME280_temperature;BME280_humidity;BME280_pressure;Samples;Min_cycle;Max_cycle;Signal;HPM_P1;HPM_P2
2022/12/27 00:01:14;;;;;;;3.43;1.33;;;5.80;99.90;;;-141.84;70.48;18556.00;5074796;28;20189;-59
2022/12/27 00:03:42;;;;;;;5.77;1.37;;;5.80;99.90;;;-141.84;70.65;18560.06;5059875;28;20248;-60
2022/12/27 00:06:15;;;;;;;9.07;1.90;;;5.80;99.90;;;-141.84;71.24;18517.41;5064637;28;20225;-60
2022/12/27 00:08:44;;;;;;;6.67;1.60;;;5.80;99.90;;;-141.84;71.40;18511.31;5074130;28;20225;-60
2022/12/27 00:11:17;;;;;;;5.30;1.30;;;5.70;99.90;;;-141.84;71.99;18519.44;5074293;28;20236;-59
2022/12/27 00:13:47;;;;;;;9.07;1.50;;;5.70;99.90;;;-141.84;71.08;18549.91;5073596;28;20550;-61
2022/12/27 00:16:18;;;;;;;7.27;1.53;;;5.70;99.90;;;-141.84;71.59;18551.94;5073869;28;20209;-59
2022/12/27 00:18:48;;;;;;;9.43;1.60;;;5.60;99.90;;;-141.84;72.43;18507.25;5073662;28;20225;-60
2022/12/27 00:21:18;;;;;;;6.07;1.50;;;5.60;99.90;;;-141.84;73.11;18480.84;5073697;28;20232;-60
2022/12/27 00:23:49;;;;;;;6.97;1.70;;;5.50;99.90;;;-141.84;73.25;18533.66;5073720;28;20236;-60
2022/12/27 00:26:22;;;;;;;6.63;1.80;;;5.50;99.90;;;-141.84;72.57;18535.69;5073653;28;20232;-60
2022/12/27 00:28:52;;;;;;;3.47;1.40;;;5.50;99.90;;;-141.84;72.38;18507.25;5072901;28;20200;-59
2022/12/27 00:31:22;;;;;;;4.20;1.57;;;5.50;99.90;;;-141.84;71.43;18529.59;5074597;28;20546;-59
2022/12/27 00:33:54;;;;;;;5.13;1.57;;;5.60;99.90;;;-141.84;72.55;18523.50;5073244;28;20223;-61
2022/12/27 00:36:26;;;;;;;6.30;1.70;;;5.60;99.90;;;-141.84;71.22;18519.44;5073361;28;20247;-60
2022/12/27 00:38:55;;;;;;;7.67;1.30;;;5.60;99.90;;;-141.84;72.19;18488.97;5073326;28;20653;-59
2022/12/27 00:41:24;;;;;;;4.57;1.23;;;5.60;99.90;;;-141.84;72.35;18543.81;5073522;28;20244;-59
2022/12/27 00:43:53;;;;;;;2.50;1.20;;;5.50;99.90;;;-141.84;73.34;18529.59;5093066;28;20746;-60
2022/12/27 00:46:21;;;;;;;3.47;1.03;;;5.50;99.90;;;-141.84;73.47;18519.44;5094274;28;20973;-59
2022/12/27 00:48:50;;;;;;;6.43;1.40;;;5.40;99.90;;;-141.84;72.36;18519.44;5093453;28;20227;-60
2022/12/27 00:51:21;;;;;;;3.73;1.17;;;5.40;99.90;;;-141.84;72.55;18543.81;5087007;28;20217;-60
2022/12/27 00:53:52;;;;;;;3.87;1.30;;;5.40;99.90;;;-141.84;73.62;18478.81;5093114;28;20227;-60
2022/12/27 00:56:24;;;;;;;4.67;1.57;;;5.40;99.90;;;-141.84;73.25;18517.41;5074342;28;20232;-59
2022/12/27 00:58:55;;;;;;;5.27;1.53;;;5.40;99.90;;;-141.84;74.48;18521.47;5077596;28;20235;-60
2022/12/27 01:01:25;;;;;;;3.57;1.57;;;5.30;99.90;;;-141.84;75.20;18484.91;5093943;28;20180;-59
2022/12/27 01:03:54;;;;;;;2.27;1.10;;;5.30;99.90;;;-141.84;75.85;18491.00;5076835;28;20235;-60
2022/12/27 01:06:27;;;;;;;5.67;1.60;;;5.20;99.90;;;-141.84;75.63;18476.78;5072768;28;20221;-60
2022/12/27 01:08:57;;;;;;;5.40;1.13;;;5.10;99.90;;;-141.84;75.93;18468.66;5072594;28;20774;-60
2022/12/27 01:11:27;;;;;;;6.67;1.57;;;5.10;99.90;;;-141.84;76.37;18464.59;5072753;28;20602;-59
2022/12/27 01:13:57;;;;;;;4.23;1.53;;;5.00;99.90;;;-141.84;76.16;18468.66;5072307;28;20229;-59
2022/12/27 01:16:28;;;;;;;5.00;1.50;;;5.10;99.90;;;-141.84;75.86;18456.47;5073362;28;20185;-60
2022/12/27 01:18:57;;;;;;;3.63;2.00;;;5.10;99.90;;;-141.84;74.53;18484.91;5072416;28;20236;-60
2022/12/27 01:21:29;;;;;;;3.67;1.70;;;5.10;99.90;;;-141.84;73.59;18488.97;5072767;28;20251;-59
2022/12/27 01:23:58;;;;;;;5.90;1.80;;;5.10;99.90;;;-141.84;73.17;18513.34;5072242;28;20739;-60
2022/12/27 01:26:26;;;;;;;4.60;1.83;;;5.10;99.90;;;-141.84;73.22;18505.22;5072277;28;20578;-59
2022/12/27 01:28:56;;;;;;;4.00;1.70;;;5.00;99.90;;;-141.84;73.29;18486.94;5051870;28;20228;-60
2022/12/27 01:31:28;;;;;;;4.23;1.93;;;5.00;99.90;;;-141.84;73.82;18478.81;5053239;28;20198;-59
2022/12/27 01:33:59;;;;;;;2.10;1.63;;;4.90;99.90;;;-141.84;74.44;18462.56;5052413;28;20317;-60
2022/12/27 01:36:30;;;;;;;3.33;1.80;;;4.90;99.90;;;-141.84;73.41;18464.59;5065141;28;20236;-59
2022/12/27 01:39:00;;;;;;;3.80;2.00;;;4.80;99.90;;;-141.84;73.98;18468.66;5072096;28;20235;-60
2022/12/27 01:44:56;;;;;;;6.97;1.97;;;4.70;99.90;;;-141.84;73.55;18464.59;5071576;28;20227;-59
2022/12/27 01:47:34;;;;;;;3.80;2.00;;;4.60;99.90;;;-141.84;72.62;18495.06;5072065;28;20714;-60
2022/12/27 01:50:15;;;;;;;7.63;2.60;;;4.60;99.90;;;-141.84;73.17;18493.03;5072504;28;20230;-60
2022/12/27 01:52:53;;;;;;;8.07;2.57;;;4.50;99.90;;;-141.84;73.57;18460.53;5071714;28;20235;-60
2022/12/27 01:55:30;;;;;;;7.10;1.97;;;4.50;99.90;;;-141.84;74.25;18452.41;5072610;28;20192;-59
2022/12/27 01:58:04;;;;;;;5.53;2.60;;;4.30;99.90;;;-141.84;73.45;18476.78;5071610;28;20222;-60
2022/12/27 02:00:34;;;;;;;4.63;2.53;;;4.30;99.90;;;-141.84;74.36;18476.78;5090976;28;20753;-59
2022/12/27 02:03:06;;;;;;;9.17;2.83;;;4.30;99.90;;;-141.84;74.40;18460.53;5073725;28;20260;-60
2022/12/27 02:05:40;;;;;;;7.10;2.73;;;4.20;99.90;;;-141.84;74.13;18464.59;5057383;28;20234;-59
2022/12/27 02:08:23;;;;;;;4.90;2.67;;;4.20;99.90;;;-141.84;73.59;18436.16;5071505;28;20234;-58
2022/12/27 02:10:53;;;;;;;4.00;2.00;;;4.10;99.90;;;-141.84;74.03;18432.09;5071552;28;20191;-60
2022/12/27 02:13:22;;;;;;;3.87;2.57;;;4.10;99.90;;;-141.84;73.59;18444.28;5071616;28;20583;-59
2022/12/27 02:15:52;;;;;;;4.73;2.40;;;4.10;99.90;;;-141.84;73.29;18450.38;5071675;28;20699;-60
2022/12/27 02:18:20;;;;;;;2.83;2.20;;;4.10;99.90;;;-141.84;72.89;18460.53;5071398;28;20238;-59
2022/12/27 02:21:38;;;;;;;4.63;2.47;;;4.10;99.90;;;-141.84;72.82;18460.53;5071582;28;20239;-61
2022/12/27 02:24:43;;;;;;;6.43;3.20;;;4.10;99.90;;;-141.84;72.86;18493.03;5071248;28;20239;-59
2022/12/27 02:27:32;;;;;;;3.40;2.47;;;4.00;99.90;;;-141.84;73.17;18456.47;5071009;28;20618;-61
2022/12/27 02:30:04;;;;;;;8.60;3.47;;;4.00;99.90;;;-141.84;73.50;18419.88;5071275;28;20233;-59
2022/12/27 02:32:41;;;;;;;6.40;3.30;;;3.90;99.90;;;-141.84;73.64;18446.31;5066448;28;20859;-59
2022/12/27 02:35:18;;;;;;;5.97;3.10;;;3.90;99.90;;;-141.84;73.90;18442.25;5053735;28;20228;-60
2022/12/27 02:37:54;;;;;;;3.47;2.70;;;3.90;99.90;;;-141.84;73.73;18482.88;5091382;28;20207;-59
2022/12/27 02:55:20;;;;;;;3.60;2.77;;;3.70;99.90;;;-141.84;73.08;18444.28;5070802;28;20225;-62
2022/12/27 02:58:03;;;;;;;4.63;2.80;;;3.70;99.90;;;-141.84;73.52;18470.69;5065059;28;20230;-59
2022/12/27 03:03:59;;;;;;;5.37;2.70;;;3.60;99.90;;;-141.84;73.12;18432.09;5075054;28;20227;-61
2022/12/27 03:06:59;;;;;;;3.83;2.50;;;3.60;99.90;;;-141.84;73.17;18456.47;5070699;28;20227;-61
2022/12/27 03:16:01;;;;;;;7.50;3.20;;;3.50;99.90;;;-141.84;72.79;18456.47;5070932;28;20229;-59
2022/12/27 03:18:54;;;;;;;6.43;3.20;;;3.50;99.90;;;-141.84;72.69;18476.78;5070970;28;20318;-59
2022/12/27 03:27:17;;;;;;;5.23;3.30;;;3.50;99.90;;;-141.84;71.82;18466.63;5074283;28;20250;-59
2022/12/27 03:35:41;;;;;;;4.33;2.80;;;3.40;99.90;;;-141.84;71.88;18464.59;5073780;28;20713;-60
2022/12/27 03:38:13;;;;;;;3.77;2.20;;;3.40;99.90;;;-141.84;70.95;18480.84;5074481;28;20238;-60
2022/12/27 03:43:39;;;;;;;4.07;2.10;;;3.40;99.90;;;-141.84;72.38;18464.59;5074636;28;20181;-59
2022/12/27 03:46:33;;;;;;;3.90;1.90;;;3.40;99.90;;;-141.84;71.17;18486.94;5074868;28;20186;-60
2022/12/27 03:49:19;;;;;;;3.27;1.97;;;3.50;99.90;;;-141.84;71.31;18460.53;5074716;28;20265;-60
2022/12/27 03:51:57;;;;;;;3.03;1.77;;;3.60;99.90;;;-141.84;71.67;18458.50;5074042;28;20570;-59
2022/12/27 03:54:31;;;;;;;4.10;1.60;;;3.60;99.90;;;-141.84;70.32;18501.16;5073695;28;20228;-60
2022/12/27 03:57:04;;;;;;;3.57;1.70;;;3.60;99.90;;;-141.84;70.58;18503.19;5073870;28;20238;-60
2022/12/27 03:59:32;;;;;;;5.53;1.60;;;3.70;99.90;;;-141.84;69.80;18513.34;5084595;28;20281;-60
2022/12/27 04:02:01;;;;;;;5.00;1.90;;;3.70;99.90;;;-141.84;69.41;18523.50;5093007;28;20233;-59
2022/12/27 04:04:30;;;;;;;2.67;1.73;;;3.70;99.90;;;-141.84;69.54;18493.03;5074618;28;20203;-60
2022/12/27 04:07:00;;;;;;;3.60;1.80;;;3.70;99.90;;;-141.84;70.17;18501.16;5074167;28;20224;-60
2022/12/27 04:34:42;;;;;;;4.50;2.00;;;3.40;99.90;;;-141.84;71.19;18476.78;5073677;28;20215;-60
2022/12/27 04:37:12;;;;;;;2.27;1.70;;;3.40;99.90;;;-141.84;71.07;18509.28;5073833;28;20254;-61
2022/12/27 04:54:55;;;;;;;4.93;1.90;;;3.40;99.90;;;-141.84;71.76;18468.66;5073432;28;20228;-59
2022/12/27 04:56:31;;;;;;;3.50;2.00;;;3.30;99.90;;;-141.84;71.49;18466.63;5072357;28;20227;-60
2022/12/27 05:02:03;;;;;;;6.77;1.77;;;3.20;99.90;;;-141.84;71.42;18488.97;5093390;28;20642;-59
2022/12/27 05:04:35;;;;;;;3.90;1.67;;;3.30;99.90;;;-141.84;71.73;18456.47;5053540;28;20197;-59
2022/12/27 05:15:22;;;;;;;3.97;1.57;;;3.40;99.90;;;-141.84;71.11;18493.03;5072798;28;20240;-59
2022/12/27 05:17:50;;;;;;;6.80;1.97;;;3.40;99.90;;;-141.84;71.56;18478.81;5072750;28;20231;-59
2022/12/27 05:20:19;;;;;;;4.37;1.60;;;3.40;99.90;;;-141.84;71.45;18486.94;5072521;28;20234;-59
2022/12/27 05:25:37;;;;;;;2.10;1.30;;;3.40;99.90;;;-141.84;71.84;18517.41;5072490;28;20196;-58
2022/12/27 05:28:10;;;;;;;5.57;1.80;;;3.40;99.90;;;-141.84;72.46;18436.16;5072860;28;20687;-60
2022/12/27 05:30:42;;;;;;;5.00;1.90;;;3.30;99.90;;;-141.84;72.37;18478.81;5072530;28;20227;-59
2022/12/27 05:33:10;;;;;;;4.70;1.50;;;3.40;99.90;;;-141.84;72.32;18470.69;5072276;28;20282;-59
2022/12/27 05:35:39;;;;;;;2.90;1.57;;;3.40;99.90;;;-141.84;71.62;18472.72;5072459;28;20589;-60
2022/12/27 05:38:07;;;;;;;3.63;1.70;;;3.40;99.90;;;-141.84;72.24;18478.81;5072239;28;20225;-60
2022/12/27 05:40:36;;;;;;;3.97;1.70;;;3.40;99.90;;;-141.84;71.27;18484.91;5071853;28;20209;-60
2022/12/27 05:43:05;;;;;;;6.30;2.00;;;3.50;99.90;;;-141.84;71.58;18468.66;5072200;28;20702;-59
2022/12/27 05:45:34;;;;;;;4.33;1.57;;;3.50;99.90;;;-141.84;71.52;18480.84;5071873;28;20236;-61
2022/12/27 05:48:02;;;;;;;5.57;1.70;;;3.50;99.90;;;-141.84;71.41;18488.97;5072184;28;20230;-59
2022/12/27 05:50:30;;;;;;;2.67;1.70;;;3.50;99.90;;;-141.84;72.22;18476.78;5072091;28;20269;-59
2022/12/27 05:52:58;;;;;;;4.37;1.43;;;3.40;99.90;;;-141.84;71.64;18466.63;5071851;28;20236;-59
2022/12/27 05:55:26;;;;;;;4.00;1.50;;;3.40;99.90;;;-141.84;71.55;18472.72;5072028;28;20199;-59
2022/12/27 05:57:54;;;;;;;5.40;1.73;;;3.40;99.90;;;-141.84;71.07;18488.97;5071724;28;20226;-59
2022/12/27 06:00:24;;;;;;;5.53;1.50;;;3.50;99.90;;;-141.84;71.42;18480.84;5089784;28;20229;-59
2022/12/27 06:02:52;;;;;;;1.93;1.57;;;3.50;99.90;;;-141.84;71.85;18468.66;5084142;28;20228;-60
2022/12/27 06:05:21;;;;;;;4.63;2.13;;;3.40;99.90;;;-141.84;71.36;18478.81;5071965;28;20236;-59
2022/12/27 06:07:49;;;;;;;3.63;1.83;;;3.40;99.90;;;-141.84;71.99;18493.03;5051702;28;20205;-60
2022/12/27 06:10:17;;;;;;;6.67;2.60;;;3.40;99.90;;;-141.84;72.14;18501.16;5051859;28;20207;-59
2022/12/27 06:12:45;;;;;;;3.20;1.60;;;3.40;99.90;;;-141.84;70.97;18517.41;5051884;28;20230;-60
2022/12/27 06:15:14;;;;;;;2.43;1.57;;;3.50;99.90;;;-141.84;70.75;18484.91;5051868;28;20244;-60
2022/12/27 06:17:43;;;;;;;3.73;1.43;;;3.50;99.90;;;-141.84;71.30;18493.03;5051929;28;20240;-60
2022/12/27 06:20:11;;;;;;;4.03;1.57;;;3.50;99.90;;;-141.84;72.03;18493.03;5051997;28;20236;-58
2022/12/27 06:22:40;;;;;;;4.40;1.70;;;3.50;99.90;;;-141.84;72.41;18468.66;5051678;28;20202;-59
2022/12/27 06:25:11;;;;;;;2.67;1.70;;;3.40;99.90;;;-141.84;72.01;18501.16;5052018;28;20186;-57
2022/12/27 06:27:41;;;;;;;3.73;1.60;;;3.40;99.90;;;-141.84;71.86;18513.34;5061353;28;20252;-61
2022/12/27 06:30:11;;;;;;;6.90;1.90;;;3.40;99.90;;;-141.84;72.56;18448.34;5071176;28;20224;-60
2022/12/27 06:32:40;;;;;;;3.23;1.70;;;3.40;99.90;;;-141.84;72.95;18470.69;5065736;28;20237;-59
2022/12/27 06:35:10;;;;;;;4.30;1.73;;;3.30;99.90;;;-141.84;73.64;18464.59;5052793;28;20233;-60
2022/12/27 06:37:38;;;;;;;4.80;1.90;;;3.20;99.90;;;-141.84;73.14;18454.44;5071198;28;20649;-59
2022/12/27 06:40:08;;;;;;;4.30;2.30;;;3.30;99.90;;;-141.84;72.81;18509.28;5071199;28;20688;-60
2022/12/27 06:42:36;;;;;;;6.80;1.77;;;3.30;99.90;;;-141.84;72.64;18456.47;5071143;28;20231;-60
2022/12/27 06:45:08;;;;;;;4.13;2.00;;;3.30;99.90;;;-141.84;73.24;18464.59;5071311;28;20226;-60
2022/12/27 06:47:36;;;;;;;3.33;2.00;;;3.30;99.90;;;-141.84;72.94;18488.97;5071218;28;20225;-59
2022/12/27 06:50:05;;;;;;;5.57;2.43;;;3.30;99.90;;;-141.84;73.54;18452.41;5071481;28;20234;-59
2022/12/27 06:52:35;;;;;;;3.30;1.90;;;3.30;99.90;;;-141.84;73.42;18460.53;5071023;28;20239;-59
2022/12/27 06:55:03;;;;;;;4.27;2.00;;;3.30;99.90;;;-141.84;73.90;18462.56;5051005;28;20199;-60
2022/12/27 06:57:31;;;;;;;5.00;2.07;;;3.20;99.90;;;-141.84;73.50;18468.66;5051255;28;20232;-59
2022/12/27 06:59:59;;;;;;;5.07;2.00;;;3.30;99.90;;;-141.84;73.03;18484.91;5078037;28;20756;-60
2022/12/27 07:02:27;;;;;;;3.23;1.83;;;3.40;99.90;;;-141.84;73.19;18480.84;5082715;28;20738;-58
2022/12/27 07:04:56;;;;;;;5.57;1.83;;;3.40;99.90;;;-141.84;73.22;18491.00;5051176;28;20226;-60
2022/12/27 07:07:24;;;;;;;6.37;1.90;;;3.40;99.90;;;-141.84;73.36;18466.63;5068267;28;20203;-60
2022/12/27 07:09:53;;;;;;;4.27;1.80;;;3.40;99.90;;;-141.84;73.53;18491.00;5070651;28;20225;-59
2022/12/27 07:12:21;;;;;;;5.37;2.43;;;3.40;99.90;;;-141.84;74.10;18468.66;5070959;28;20224;-59
2022/12/27 07:14:50;;;;;;;5.17;2.60;;;3.30;99.90;;;-141.84;74.16;18456.47;5071100;28;20247;-60
2022/12/27 07:17:18;;;;;;;2.37;1.90;;;3.30;99.90;;;-141.84;74.29;18450.38;5070976;28;20228;-60
2022/12/27 07:19:47;;;;;;;2.90;2.07;;;3.30;99.90;;;-141.84;74.11;18468.66;5070977;28;20220;-60
2022/12/27 07:22:15;;;;;;;4.77;1.77;;;3.30;99.90;;;-141.84;74.43;18464.59;5071368;28;20205;-60
2022/12/27 07:24:43;;;;;;;3.07;2.00;;;3.30;99.90;;;-141.84;73.68;18480.84;5069725;28;20229;-60
2022/12/27 07:27:14;;;;;;;4.03;2.70;;;3.30;99.90;;;-141.84;73.96;18446.31;5070315;28;20222;-59
2022/12/27 07:29:42;;;;;;;3.03;1.93;;;3.30;99.90;;;-141.84;73.83;18482.88;5071276;28;20223;-59
2022/12/27 07:32:13;;;;;;;4.50;2.20;;;3.40;99.90;;;-141.84;73.71;18470.69;5069149;28;20231;-59
2022/12/27 07:34:41;;;;;;;5.90;2.50;;;3.50;99.90;;;-141.84;72.80;18488.97;5050912;28;20210;-59
2022/12/27 07:37:09;;;;;;;3.90;2.00;;;3.60;99.90;;;-141.84;72.73;18474.75;5069360;28;20211;-60
2022/12/27 07:39:37;;;;;;;5.00;1.80;;;3.70;99.90;;;-141.84;71.81;18497.09;5070445;28;20230;-60
2022/12/27 07:42:05;;;;;;;3.13;2.00;;;3.80;99.90;;;-141.84;70.90;18509.28;5070916;28;20231;-59
2022/12/27 07:44:37;;;;;;;5.83;2.20;;;3.90;99.90;;;-141.84;70.88;18517.41;5070554;28;20274;-60
2022/12/27 07:47:06;;;;;;;4.43;1.80;;;4.00;99.90;;;-141.84;70.28;18511.31;5070614;28;20567;-59
2022/12/27 07:49:34;;;;;;;3.20;2.07;;;4.10;99.90;;;-141.84;70.16;18547.88;5069273;28;20300;-62
2022/12/27 07:52:02;;;;;;;3.20;2.10;;;4.20;99.90;;;-141.84;70.41;18531.63;5071010;28;20232;-62
2022/12/27 07:54:30;;;;;;;3.17;1.70;;;4.20;99.90;;;-141.84;70.04;18574.28;5069637;28;20216;-60
2022/12/27 07:56:58;;;;;;;4.27;1.90;;;4.30;99.90;;;-141.84;70.26;18545.84;5070505;28;20315;-61
2022/12/27 07:59:27;;;;;;;3.97;1.93;;;4.40;99.90;;;-141.84;70.04;18523.50;5080090;28;20226;-52
2022/12/27 08:02:08;;;;;;;5.57;1.90;;;4.40;99.90;;;-141.84;70.67;18513.34;5078819;28;20232;-53
2022/12/27 08:04:38;;;;;;;4.60;1.90;;;4.30;99.90;;;-141.84;71.25;18553.97;5058167;28;20246;-53
2022/12/27 08:07:12;;;;;;;5.97;2.50;;;4.30;99.90;;;-141.84;71.11;18521.47;5071245;28;20606;-53
2022/12/27 08:09:44;;;;;;;4.53;2.10;;;4.30;99.90;;;-141.84;70.78;18549.91;5073463;28;20270;-51
2022/12/27 08:12:13;;;;;;;4.43;2.20;;;4.30;99.90;;;-141.84;71.12;18527.56;5073716;28;20224;-54
2022/12/27 08:14:42;;;;;;;5.30;2.07;;;4.30;99.90;;;-141.84;71.13;18525.53;5073715;28;20231;-51
2022/12/27 08:17:19;;;;;;;6.47;2.30;;;4.30;99.90;;;-141.84;70.69;18531.63;5073732;28;20248;-52
2022/12/27 08:19:47;;;;;;;5.80;2.53;;;4.30;99.90;;;-141.84;71.13;18547.88;5073401;28;20192;-52
2022/12/27 08:22:15;;;;;;;4.80;2.47;;;4.30;99.90;;;-141.84;70.59;18549.91;5073634;28;20514;-53
2022/12/27 08:24:44;;;;;;;5.30;1.90;;;4.40;99.90;;;-141.84;70.64;18517.41;5072358;28;20572;-53
2022/12/27 08:27:12;;;;;;;5.63;1.97;;;4.40;99.90;;;-141.84;70.84;18535.69;5093576;28;20231;-50
2022/12/27 08:29:40;;;;;;;4.33;2.10;;;4.40;99.90;;;-141.84;70.20;18572.25;5093730;28;20703;-54
2022/12/27 08:32:09;;;;;;;3.53;1.70;;;4.50;99.90;;;-141.84;70.34;18590.56;5088705;28;20234;-54
2022/12/27 08:34:38;;;;;;;3.53;2.10;;;4.50;99.90;;;-141.84;69.73;18580.41;5053697;28;20204;-52
2022/12/27 08:37:06;;;;;;;7.53;2.40;;;4.60;99.90;;;-141.84;69.89;18564.13;5071471;28;20204;-50
2022/12/27 08:39:35;;;;;;;4.77;1.77;;;4.60;99.90;;;-141.84;70.41;18549.91;5072800;28;20734;-54
2022/12/27 08:42:03;;;;;;;4.47;1.97;;;4.60;99.90;;;-141.84;69.82;18596.66;5073217;28;20251;-52
2022/12/27 08:44:31;;;;;;;1.83;1.70;;;4.70;99.90;;;-141.84;69.94;18588.53;5073242;28;20224;-51
2022/12/27 08:46:59;;;;;;;2.00;1.53;;;4.70;99.90;;;-141.84;69.65;18610.88;5072905;28;20235;-53
2022/12/27 08:49:28;;;;;;;4.73;1.63;;;4.70;99.90;;;-141.84;69.67;18612.91;5073773;28;20204;-49
2022/12/27 08:51:57;;;;;;;2.97;1.50;;;4.70;99.90;;;-141.84;69.20;18584.47;5073014;28;20247;-54
2022/12/27 08:54:25;;;;;;;3.17;1.53;;;4.80;99.90;;;-141.84;68.68;18586.50;5072532;28;20322;-49
2022/12/27 08:56:53;;;;;;;2.40;1.50;;;4.90;99.90;;;-141.84;68.12;18596.66;5073094;28;20232;-54
2022/12/27 08:59:21;;;;;;;3.10;1.70;;;5.00;99.90;;;-141.84;68.59;18610.88;5081947;28;20726;-49
2022/12/27 09:01:50;;;;;;;3.50;2.20;;;4.90;99.90;;;-141.84;68.80;18598.69;5093076;28;20234;-48
2022/12/27 09:04:18;;;;;;;4.57;1.50;;;4.90;99.90;;;-141.84;68.16;18635.25;5054398;28;20206;-50
2022/12/27 09:06:46;;;;;;;3.57;1.57;;;5.00;99.90;;;-141.84;68.64;18604.78;5067329;28;20236;-52
2022/12/27 09:09:16;;;;;;;2.83;1.40;;;5.00;99.90;;;-141.84;68.50;18614.94;5072208;28;20675;-53
2022/12/27 09:11:45;;;;;;;2.83;1.87;;;5.00;99.90;;;-141.84;68.94;18610.88;5072930;28;20241;-54
2022/12/27 09:14:13;;;;;;;6.57;3.20;;;5.10;99.90;;;-141.84;68.53;18623.06;5072727;28;20244;-51
2022/12/27 09:16:41;;;;;;;3.13;2.17;;;5.20;99.90;;;-141.84;68.01;18614.94;5072711;28;20220;-52
2022/12/27 09:19:11;;;;;;;3.03;1.60;;;5.20;99.90;;;-141.84;67.90;18639.31;5073373;28;20236;-53
2022/12/27 09:21:42;;;;;;;2.70;1.57;;;5.30;99.90;;;-141.84;68.23;18643.38;5074104;28;20242;-53
2022/12/27 09:24:11;;;;;;;6.47;1.70;;;5.40;99.90;;;-141.84;67.83;18637.28;5072502;28;20224;-54
2022/12/27 09:26:41;;;;;;;5.73;1.50;;;5.40;99.90;;;-141.84;67.49;18627.13;5072657;28;20224;-50
2022/12/27 09:29:10;;;;;;;2.67;1.50;;;5.50;99.90;;;-141.84;67.45;18667.75;5072624;28;20239;-51
2022/12/27 09:31:38;;;;;;;3.50;1.70;;;5.60;99.90;;;-141.84;68.35;18643.38;5072295;28;20291;-52
2022/12/27 09:34:06;;;;;;;5.43;1.70;;;5.60;99.90;;;-141.84;66.80;18651.50;5072792;28;20235;-55
2022/12/27 09:36:39;;;;;;;2.83;1.60;;;5.70;99.90;;;-141.84;66.93;18651.50;5071912;28;20239;-53
2022/12/27 09:39:09;;;;;;;4.33;1.67;;;5.80;99.90;;;-141.84;66.45;18663.69;5071677;28;20239;-50
2022/12/27 09:41:49;;;;;;;2.40;1.50;;;5.80;99.90;;;-141.84;66.21;18686.03;5071984;28;20229;-49
2022/12/27 09:44:49;;;;;;;2.83;1.50;;;5.90;99.90;;;-141.84;66.58;18675.88;5071823;28;20261;-50
2022/12/27 09:47:26;;;;;;;2.83;1.40;;;5.90;99.90;;;-141.84;66.36;18667.75;5071914;28;20883;-51
2022/12/27 09:50:02;;;;;;;3.37;1.43;;;5.90;99.90;;;-141.84;66.90;18679.94;5072232;28;20235;-51
2022/12/27 09:52:37;;;;;;;3.27;1.43;;;5.80;99.90;;;-141.84;66.84;18669.78;5071643;28;20228;-54
2022/12/27 09:55:15;;;;;;;2.37;1.70;;;6.00;99.90;;;-141.84;66.55;18659.63;5060338;28;20212;-54
2022/12/27 09:57:47;;;;;;;3.80;1.40;;;5.90;99.90;;;-141.84;66.75;18684.00;5071687;28;20270;-54
2022/12/27 10:00:19;;;;;;;3.50;1.47;;;6.00;99.90;;;-141.84;66.77;18663.69;5088543;28;20219;-49
2022/12/27 10:03:05;;;;;;;2.47;1.30;;;6.00;99.90;;;-141.84;66.74;18698.22;5081919;28;20308;-54
2022/12/27 10:05:38;;;;;;;5.20;1.60;;;6.00;99.90;;;-141.84;65.83;18704.31;5071558;28;20731;-53
2022/12/27 10:08:29;;;;;;;2.63;1.90;;;6.10;99.90;;;-141.84;66.01;18698.22;5070361;28;20276;-52
2022/12/27 10:11:34;;;;;;;4.03;2.00;;;6.10;99.90;;;-141.84;65.74;18684.00;5071672;28;20235;-52
2022/12/27 10:14:13;;;;;;;4.53;1.50;;;6.20;99.90;;;-141.84;65.70;18722.63;5071474;28;20255;-52
2022/12/27 10:16:52;;;;;;;4.40;1.93;;;6.20;99.90;;;-141.84;65.31;18736.84;5071258;28;20629;-52
2022/12/27 10:19:35;;;;;;;2.93;1.27;;;6.20;99.90;;;-141.84;65.41;18702.28;5072052;28;20663;-51
2022/12/27 10:22:21;;;;;;;4.43;1.40;;;6.20;99.90;;;-141.84;65.94;18692.13;5070811;28;20609;-49
2022/12/27 10:24:55;;;;;;;2.80;1.90;;;6.10;99.90;;;-141.84;66.30;18675.88;5071149;28;20232;-49
2022/12/27 10:27:28;;;;;;;5.80;1.70;;;6.10;99.90;;;-141.84;66.63;18692.13;5070873;28;20225;-52
2022/12/27 10:30:02;;;;;;;4.27;1.63;;;6.00;99.90;;;-141.84;66.82;18698.22;5070608;28;20724;-52
2022/12/27 10:32:30;;;;;;;3.30;1.70;;;6.00;99.90;;;-141.84;67.15;18700.25;5069375;28;20626;-54
2022/12/27 10:35:02;;;;;;;5.57;1.60;;;5.90;99.90;;;-141.84;66.98;18696.19;5071500;28;20232;-51
2022/12/27 10:37:30;;;;;;;2.90;1.70;;;5.90;99.90;;;-141.84;67.15;18700.25;5051199;28;20232;-51
2022/12/27 10:40:11;;;;;;;5.90;2.20;;;5.90;99.90;;;-141.84;67.44;18675.88;5051411;28;20260;-49
2022/12/27 10:42:44;;;;;;;2.93;1.73;;;5.90;99.90;;;-141.84;67.80;18694.16;5050916;28;20236;-52
2022/12/27 10:45:33;;;;;;;2.23;1.50;;;5.90;99.90;;;-141.84;67.50;18698.22;5051261;28;20221;-50
2022/12/27 10:48:16;;;;;;;4.23;1.83;;;5.90;99.90;;;-141.84;67.43;18690.09;5050986;28;20231;-56
2022/12/27 10:50:51;;;;;;;3.53;2.10;;;6.00;99.90;;;-141.84;67.63;18700.25;5051054;28;20233;-57
2022/12/27 10:53:38;;;;;;;3.00;1.83;;;6.00;99.90;;;-141.84;67.20;18679.94;5055994;28;20232;-56
2022/12/27 10:56:17;;;;;;;3.63;2.00;;;6.10;99.90;;;-141.84;67.68;18694.16;5070956;28;20730;-53
2022/12/27 10:58:47;;;;;;;4.27;2.57;;;6.20;99.90;;;-141.84;66.64;18730.75;5074888;28;20184;-54
2022/12/27 11:01:29;;;;;;;3.10;1.60;;;6.20;99.90;;;-141.84;67.05;18720.59;5091922;28;20303;-52
2022/12/27 11:04:15;;;;;;;4.03;1.80;;;6.30;99.90;;;-141.84;66.55;18747.00;5073844;28;20231;-52
2022/12/27 11:06:51;;;;;;;4.70;1.93;;;6.30;99.90;;;-141.84;66.77;18730.75;5069928;28;20299;-54
2022/12/27 11:09:32;;;;;;;2.93;1.73;;;6.30;99.90;;;-141.84;66.69;18740.91;5070622;28;20251;-54
2022/12/27 11:12:30;;;;;;;2.77;1.70;;;6.30;99.90;;;-141.84;66.61;18742.94;5070931;28;20230;-54
2022/12/27 11:15:02;;;;;;;2.93;1.60;;;6.30;99.90;;;-141.84;67.36;18712.47;5025671;28;20277;-49
2022/12/27 11:17:38;;;;;;;3.60;1.80;;;6.30;99.90;;;-141.84;66.10;18759.19;5070734;28;20247;-52
2022/12/27 11:20:22;;;;;;;4.53;1.77;;;6.40;99.90;;;-141.84;66.66;18712.47;5070893;28;20224;-49
2022/12/27 11:22:55;;;;;;;4.43;1.90;;;6.50;99.90;;;-141.84;66.80;18718.56;5069817;28;20664;-54
2022/12/27 11:25:27;;;;;;;4.47;1.90;;;6.40;99.90;;;-141.84;66.52;18726.69;5071671;28;20200;-52
2022/12/27 11:28:01;;;;;;;5.90;2.63;;;6.40;99.90;;;-141.84;66.68;18732.78;5070586;28;20235;-51
2022/12/27 11:30:33;;;;;;;3.13;1.77;;;6.40;99.90;;;-141.84;67.20;18712.47;5070757;28;20228;-49
2022/12/27 11:33:06;;;;;;;3.60;2.00;;;6.30;99.90;;;-141.84;67.19;18704.31;5061551;28;20232;-53
2022/12/27 11:35:48;;;;;;;3.70;1.70;;;6.20;99.90;;;-141.84;67.59;18720.59;5055854;28;20254;-50
2022/12/27 11:38:25;;;;;;;2.40;1.50;;;6.30;99.90;;;-141.84;67.20;18744.97;5070380;28;20236;-49
2022/12/27 11:41:05;;;;;;;3.83;1.67;;;6.30;99.90;;;-141.84;67.03;18720.59;5071100;28;20231;-53
2022/12/27 11:43:44;;;;;;;2.70;1.70;;;6.30;99.90;;;-141.84;66.75;18744.97;5073699;28;20205;-52
2022/12/27 11:46:26;;;;;;;3.33;1.60;;;6.40;99.90;;;-141.84;66.54;18751.06;5074851;28;20745;-53
2022/12/27 11:48:58;;;;;;;2.83;1.80;;;6.40;99.90;;;-141.84;66.89;18732.78;5074429;28;20596;-52
2022/12/27 11:51:56;;;;;;;3.20;1.63;;;6.40;99.90;;;-141.84;66.51;18744.97;5073653;28;20237;-51
2022/12/27 11:54:53;;;;;;;2.23;1.80;;;6.50;99.90;;;-141.84;66.70;18761.22;5072935;28;20225;-53
2022/12/27 11:57:49;;;;;;;5.87;1.80;;;6.40;99.90;;;-141.84;65.72;18763.25;5073977;28;20229;-51
2022/12/27 12:00:22;;;;;;;2.80;1.70;;;6.50;99.90;;;-141.84;66.22;18757.16;5091226;28;20235;-52
2022/12/27 12:03:20;;;;;;;4.17;1.57;;;6.50;99.90;;;-141.84;66.57;18724.66;5086089;28;20220;-51
2022/12/27 12:06:07;;;;;;;3.67;2.37;;;6.50;99.90;;;-141.84;66.01;18791.69;5073592;28;20270;-50
2022/12/27 12:09:13;;;;;;;2.57;1.57;;;6.60;99.90;;;-141.84;65.88;18759.19;5073765;28;20383;-55
2022/12/27 12:12:05;;;;;;;2.47;1.73;;;6.70;99.90;;;-141.84;65.72;18793.72;5089853;28;20223;-53
2022/12/27 12:15:35;;;;;;;2.63;1.77;;;6.80;99.90;;;-141.84;65.41;18765.28;5091166;28;20235;-52